sensor_id;sensor_type;location;lat;lon;timestamp;P1;durP1;ratioP1;P2;durP2;ratioP2
3817;SDS011;1924;48.078;11.516;2023-03-08T00:00:06;24.00;;;0.70;;
3817;SDS011;1924;48.078;11.516;2023-03-08T00:02:35;23.83;;;0.70;;
3817;SDS011;1924;48.078;11.516;2023-03-08T00:05:01;24.00;;;0.70;;
3817;SDS011;1924;48.078;11.516;2023-03-08T00:07:28;24.10;;;0.80;;
3817;SDS011;1924;48.078;11.516;2023-03-08T00:09:55;23.87;;;0.70;;
3817;SDS011;1924;48.078;11.516;2023-03-08T00:12:23;24.07;;;0.70;;
3817;SDS011;1924;48.078;11.516;2023-03-08T00:14:50;23.80;;;0.70;;
3817;SDS011;1924;48.078;11.516;2023-03-08T00:17:17;24.00;;;0.70;;
3817;SDS011;1924;48.078;11.516;2023-03-08T00:19:44;24.00;;;0.80;;
3817;SDS011;1924;48.078;11.516;2023-03-08T00:22:10;24.10;;;0.77;;
3817;SDS011;1924;48.078;11.516;2023-03-08T00:24:37;24.00;;;0.70;;
3817;SDS011;1924;48.078;11.516;2023-03-08T00:27:04;24.10;;;0.80;;
3817;SDS011;1924;48.078;11.516;2023-03-08T00:29:32;24.17;;;0.70;;
3817;SDS011;1924;48.078;11.516;2023-03-08T00:31:59;23.97;;;0.70;;
3817;SDS011;1924;48.078;11.516;2023-03-08T00:34:26;24.00;;;0.80;;
3817;SDS011;1924;48.078;11.516;2023-03-08T00:36:53;24.10;;;0.70;;
3817;SDS011;1924;48.078;11.516;2023-03-08T00:39:20;24.00;;;0.70;;
3817;SDS011;1924;48.078;11.516;2023-03-08T00:41:46;24.03;;;0.77;;
3817;SDS011;1924;48.078;11.516;2023-03-08T00:44:13;24.10;;;0.70;;
3817;SDS011;1924;48.078;11.516;2023-03-08T00:46:41;24.00;;;0.73;;
3817;SDS011;1924;48.078;11.516;2023-03-08T00:49:08;24.00;;;0.70;;
3817;SDS011;1924;48.078;11.516;2023-03-08T00:51:35;23.90;;;0.70;;
3817;SDS011;1924;48.078;11.516;2023-03-08T00:54:02;24.10;;;0.70;;
3817;SDS011;1924;48.078;11.516;2023-03-08T00:56:29;24.10;;;0.70;;
3817;SDS011;1924;48.078;11.516;2023-03-08T00:58:56;23.90;;;0.70;;
3817;SDS011;1924;48.078;11.516;2023-03-08T01:01:22;24.10;;;0.70;;
3817;SDS011;1924;48.078;11.516;2023-03-08T01:03:50;24.13;;;0.70;;
3817;SDS011;1924;48.078;11.516;2023-03-08T01:06:17;24.03;;;0.70;;
3817;SDS011;1924;48.078;11.516;2023-03-08T01:08:44;24.00;;;0.73;;
3817;SDS011;1924;48.078;11.516;2023-03-08T01:11:14;24.10;;;0.70;;
3817;SDS011;1924;48.078;11.516;2023-03-08T01:13:42;24.00;;;0.70;;
3817;SDS011;1924;48.078;11.516;2023-03-08T01:16:13;23.90;;;0.70;;
3817;SDS011;1924;48.078;11.516;2023-03-08T01:18:41;24.00;;;0.70;;
3817;SDS011;1924;48.078;11.516;2023-03-08T01:21:09;23.97;;;0.70;;
3817;SDS011;1924;48.078;11.516;2023-03-08T01:23:36;24.20;;;0.77;;
3817;SDS011;1924;48.078;11.516;2023-03-08T01:26:04;23.90;;;0.70;;
3817;SDS011;1924;48.078;11.516;2023-03-08T01:28:32;24.00;;;0.70;;
3817;SDS011;1924;48.078;11.516;2023-03-08T01:31:00;23.80;;;0.70;;
3817;SDS011;1924;48.078;11.516;2023-03-08T01:33:27;24.00;;;0.70;;
3817;SDS011;1924;48.078;11.516;2023-03-08T01:35:54;23.90;;;0.70;;
3817;SDS011;1924;48.078;11.516;2023-03-08T01:38:22;23.90;;;0.70;;
3817;SDS011;1924;48.078;11.516;2023-03-08T01:40:53;24.00;;;0.70;;
3817;SDS011;1924;48.078;11.516;2023-03-08T01:43:25;23.90;;;0.70;;
3817;SDS011;1924;48.078;11.516;2023-03-08T01:46:07;23.90;;;0.80;;
3817;SDS011;1924;48.078;11.516;2023-03-08T01:48:40;24.00;;;0.70;;
3817;SDS011;1924;48.078;11.516;2023-03-08T01:51:09;23.80;;;0.70;;
3817;SDS011;1924;48.078;11.516;2023-03-08T01:53:41;24.00;;;0.70;;
3817;SDS011;1924;48.078;11.516;2023-03-08T01:56:09;24.00;;;0.70;;
3817;SDS011;1924;48.078;11.516;2023-03-08T01:58:38;24.00;;;0.70;;
3817;SDS011;1924;48.078;11.516;2023-03-08T02:01:06;24.03;;;0.80;;
3817;SDS011;1924;48.078;11.516;2023-03-08T02:03:33;24.00;;;0.73;;
3817;SDS011;1924;48.078;11.516;2023-03-08T02:06:00;23.77;;;0.70;;
3817;SDS011;1924;48.078;11.516;2023-03-08T02:08:28;24.07;;;0.70;;
3817;SDS011;1924;48.078;11.516;2023-03-08T02:10:56;23.80;;;0.70;;
3817;SDS011;1924;48.078;11.516;2023-03-08T02:13:24;23.80;;;0.70;;
3817;SDS011;1924;48.078;11.516;2023-03-08T02:15:51;23.80;;;0.70;;
3817;SDS011;1924;48.078;11.516;2023-03-08T02:18:21;23.90;;;0.70;;
3817;SDS011;1924;48.078;11.516;2023-03-08T02:20:47;23.70;;;0.70;;
3817;SDS011;1924;48.078;11.516;2023-03-08T02:23:16;24.00;;;0.77;;
3817;SDS011;1924;48.078;11.516;2023-03-08T02:25:48;23.90;;;0.70;;
3817;SDS011;1924;48.078;11.516;2023-03-08T02:28:17;24.07;;;0.70;;
3817;SDS011;1924;48.078;11.516;2023-03-08T02:30:45;23.80;;;0.70;;
3817;SDS011;1924;48.078;11.516;2023-03-08T02:33:11;23.90;;;0.70;;
3817;SDS011;1924;48.078;11.516;2023-03-08T02:35:38;23.97;;;0.80;;
3817;SDS011;1924;48.078;11.516;2023-03-08T02:38:07;23.93;;;0.70;;
3817;SDS011;1924;48.078;11.516;2023-03-08T02:40:35;24.00;;;0.70;;
3817;SDS011;1924;48.078;11.516;2023-03-08T02:43:02;24.07;;;0.70;;
3817;SDS011;1924;48.078;11.516;2023-03-08T02:45:29;24.00;;;0.70;;
3817;SDS011;1924;48.078;11.516;2023-03-08T02:47:57;23.90;;;0.70;;
3817;SDS011;1924;48.078;11.516;2023-03-08T02:50:24;24.10;;;0.80;;
3817;SDS011;1924;48.078;11.516;2023-03-08T02:52:51;23.80;;;0.80;;
3817;SDS011;1924;48.078;11.516;2023-03-08T02:55:18;23.87;;;0.70;;
3817;SDS011;1924;48.078;11.516;2023-03-08T02:57:46;24.00;;;0.80;;
3817;SDS011;1924;48.078;11.516;2023-03-08T03:00:12;24.03;;;0.70;;
3817;SDS011;1924;48.078;11.516;2023-03-08T03:02:39;23.80;;;0.70;;
3817;SDS011;1924;48.078;11.516;2023-03-08T03:05:07;24.00;;;0.70;;
3817;SDS011;1924;48.078;11.516;2023-03-08T05:00:45;23.30;;;0.80;;
3817;SDS011;1924;48.078;11.516;2023-03-08T05:03:12;23.53;;;0.70;;
3817;SDS011;1924;48.078;11.516;2023-03-08T05:05:43;23.60;;;0.80;;
3817;SDS011;1924;48.078;11.516;2023-03-08T05:08:11;23.57;;;0.80;;
3817;SDS011;1924;48.078;11.516;2023-03-08T05:10:38;23.40;;;0.70;;
3817;SDS011;1924;48.078;11.516;2023-03-08T05:13:04;23.50;;;0.80;;
3817;SDS011;1924;48.078;11.516;2023-03-08T05:15:31;23.50;;;0.80;;
3817;SDS011;1924;48.078;11.516;2023-03-08T05:17:59;23.50;;;0.80;;
3817;SDS011;1924;48.078;11.516;2023-03-08T05:20:26;23.40;;;0.80;;
3817;SDS011;1924;48.078;11.516;2023-03-08T05:22:52;23.20;;;0.80;;
3817;SDS011;1924;48.078;11.516;2023-03-08T05:25:19;23.30;;;0.70;;
3817;SDS011;1924;48.078;11.516;2023-03-08T05:27:46;23.40;;;0.70;;
3817;SDS011;1924;48.078;11.516;2023-03-08T05:30:13;23.47;;;0.70;;
3817;SDS011;1924;48.078;11.516;2023-03-08T05:32:40;23.50;;;0.70;;
3817;SDS011;1924;48.078;11.516;2023-03-08T05:35:08;23.60;;;0.80;;
3817;SDS011;1924;48.078;11.516;2023-03-08T05:37:35;23.57;;;0.70;;
3817;SDS011;1924;48.078;11.516;2023-03-08T05:40:02;23.57;;;0.70;;
3817;SDS011;1924;48.078;11.516;2023-03-08T05:42:30;23.57;;;0.70;;
3817;SDS011;1924;48.078;11.516;2023-03-08T05:44:57;23.37;;;0.70;;
3817;SDS011;1924;48.078;11.516;2023-03-08T05:47:24;23.30;;;0.80;;
3817;SDS011;1924;48.078;11.516;2023-03-08T05:49:50;23.30;;;0.70;;
3817;SDS011;1924;48.078;11.516;2023-03-08T05:52:19;23.57;;;0.70;;
3817;SDS011;1924;48.078;11.516;2023-03-08T05:54:45;23.40;;;0.70;;
3817;SDS011;1924;48.078;11.516;2023-03-08T05:57:12;23.37;;;0.70;;
3817;SDS011;1924;48.078;11.516;2023-03-08T05:59:39;23.30;;;0.77;;
3817;SDS011;1924;48.078;11.516;2023-03-08T06:02:05;23.40;;;0.80;;
3817;SDS011;1924;48.078;11.516;2023-03-08T06:04:32;23.40;;;0.80;;
3817;SDS011;1924;48.078;11.516;2023-03-08T06:06:59;23.50;;;0.80;;
3817;SDS011;1924;48.078;11.516;2023-03-08T06:09:27;23.50;;;0.80;;
3817;SDS011;1924;48.078;11.516;2023-03-08T06:11:54;23.50;;;0.80;;
3817;SDS011;1924;48.078;11.516;2023-03-08T06:14:20;23.50;;;0.70;;
3817;SDS011;1924;48.078;11.516;2023-03-08T06:16:47;23.40;;;0.73;;
3817;SDS011;1924;48.078;11.516;2023-03-08T06:19:14;23.60;;;0.70;;
3817;SDS011;1924;48.078;11.516;2023-03-08T06:21:41;23.50;;;0.80;;
3817;SDS011;1924;48.078;11.516;2023-03-08T06:24:08;23.30;;;0.80;;
3817;SDS011;1924;48.078;11.516;2023-03-08T06:26:36;23.40;;;0.70;;
3817;SDS011;1924;48.078;11.516;2023-03-08T06:29:03;23.50;;;0.70;;
3817;SDS011;1924;48.078;11.516;2023-03-08T06:31:29;23.53;;;0.70;;
3817;SDS011;1924;48.078;11.516;2023-03-08T06:33:56;23.60;;;0.80;;
3817;SDS011;1924;48.078;11.516;2023-03-08T06:36:23;23.67;;;0.70;;
3817;SDS011;1924;48.078;11.516;2023-03-08T06:38:50;23.70;;;0.70;;
3817;SDS011;1924;48.078;11.516;2023-03-08T06:41:17;23.50;;;0.70;;
3817;SDS011;1924;48.078;11.516;2023-03-08T06:43:46;23.50;;;0.70;;
3817;SDS011;1924;48.078;11.516;2023-03-08T06:46:14;23.57;;;0.70;;
3817;SDS011;1924;48.078;11.516;2023-03-08T06:48:42;23.50;;;0.70;;
3817;SDS011;1924;48.078;11.516;2023-03-08T06:51:09;23.77;;;0.70;;
3817;SDS011;1924;48.078;11.516;2023-03-08T06:53:35;23.60;;;0.70;;
3817;SDS011;1924;48.078;11.516;2023-03-08T06:56:03;23.70;;;0.70;;
3817;SDS011;1924;48.078;11.516;2023-03-08T06:58:31;23.67;;;0.70;;
3817;SDS011;1924;48.078;11.516;2023-03-08T07:01:00;23.60;;;0.70;;
3817;SDS011;1924;48.078;11.516;2023-03-08T07:03:30;23.80;;;0.80;;
3817;SDS011;1924;48.078;11.516;2023-03-08T07:05:59;23.80;;;0.80;;
3817;SDS011;1924;48.078;11.516;2023-03-08T07:08:27;23.80;;;0.80;;
3817;SDS011;1924;48.078;11.516;2023-03-08T07:10:54;23.80;;;0.73;;
3817;SDS011;1924;48.078;11.516;2023-03-08T07:13:22;23.60;;;0.70;;
3817;SDS011;1924;48.078;11.516;2023-03-08T07:15:49;23.70;;;0.70;;
3817;SDS011;1924;48.078;11.516;2023-03-08T07:18:17;23.70;;;0.70;;
3817;SDS011;1924;48.078;11.516;2023-03-08T07:20:45;23.70;;;0.80;;
3817;SDS011;1924;48.078;11.516;2023-03-08T07:23:19;23.67;;;0.70;;
3817;SDS011;1924;48.078;11.516;2023-03-08T07:25:46;23.70;;;0.80;;
3817;SDS011;1924;48.078;11.516;2023-03-08T07:28:12;23.60;;;0.70;;
3817;SDS011;1924;48.078;11.516;2023-03-08T07:30:40;23.70;;;0.70;;
3817;SDS011;1924;48.078;11.516;2023-03-08T07:33:13;23.70;;;0.70;;
3817;SDS011;1924;48.078;11.516;2023-03-08T07:35:41;23.70;;;0.73;;
3817;SDS011;1924;48.078;11.516;2023-03-08T07:38:10;23.80;;;0.70;;
3817;SDS011;1924;48.078;11.516;2023-03-08T07:40:38;23.80;;;0.77;;
3817;SDS011;1924;48.078;11.516;2023-03-08T07:43:06;23.67;;;0.70;;
3817;SDS011;1924;48.078;11.516;2023-03-08T07:45:35;23.80;;;0.80;;
3817;SDS011;1924;48.078;11.516;2023-03-08T07:48:03;23.60;;;0.70;;
3817;SDS011;1924;48.078;11.516;2023-03-08T07:50:31;23.67;;;0.80;;
3817;SDS011;1924;48.078;11.516;2023-03-08T07:53:01;23.70;;;0.70;;
3817;SDS011;1924;48.078;11.516;2023-03-08T07:55:28;23.80;;;0.80;;
3817;SDS011;1924;48.078;11.516;2023-03-08T07:57:55;23.70;;;0.70;;
3817;SDS011;1924;48.078;11.516;2023-03-08T08:00:23;23.83;;;0.70;;
3817;SDS011;1924;48.078;11.516;2023-03-08T08:02:52;23.90;;;0.80;;
3817;SDS011;1924;48.078;11.516;2023-03-08T08:05:20;24.00;;;0.70;;
3817;SDS011;1924;48.078;11.516;2023-03-08T08:07:49;23.90;;;0.70;;
3817;SDS011;1924;48.078;11.516;2023-03-08T08:10:17;24.17;;;0.77;;
3817;SDS011;1924;48.078;11.516;2023-03-08T08:12:44;24.20;;;0.70;;
3817;SDS011;1924;48.078;11.516;2023-03-08T08:15:12;24.20;;;0.70;;
3817;SDS011;1924;48.078;11.516;2023-03-08T08:17:41;24.37;;;0.70;;
3817;SDS011;1924;48.078;11.516;2023-03-08T08:20:08;24.40;;;0.80;;
3817;SDS011;1924;48.078;11.516;2023-03-08T08:22:36;24.40;;;0.73;;
3817;SDS011;1924;48.078;11.516;2023-03-08T08:25:04;24.50;;;0.80;;
3817;SDS011;1924;48.078;11.516;2023-03-08T08:27:35;24.20;;;0.80;;
3817;SDS011;1924;48.078;11.516;2023-03-08T08:30:02;24.50;;;0.73;;
3817;SDS011;1924;48.078;11.516;2023-03-08T08:32:31;24.40;;;0.70;;
3817;SDS011;1924;48.078;11.516;2023-03-08T08:34:59;24.40;;;0.80;;
3817;SDS011;1924;48.078;11.516;2023-03-08T08:37:28;24.40;;;0.70;;
3817;SDS011;1924;48.078;11.516;2023-03-08T08:39:55;24.10;;;0.70;;
3817;SDS011;1924;48.078;11.516;2023-03-08T08:42:22;25.27;;;0.80;;
3817;SDS011;1924;48.078;11.516;2023-03-08T08:44:51;24.20;;;0.80;;
3817;SDS011;1924;48.078;11.516;2023-03-08T08:47:20;24.20;;;0.77;;
3817;SDS011;1924;48.078;11.516;2023-03-08T08:49:47;24.10;;;0.80;;
3817;SDS011;1924;48.078;11.516;2023-03-08T08:52:13;24.10;;;0.70;;
3817;SDS011;1924;48.078;11.516;2023-03-08T08:54:41;24.00;;;0.70;;
3817;SDS011;1924;48.078;11.516;2023-03-08T08:57:09;24.10;;;0.70;;
3817;SDS011;1924;48.078;11.516;2023-03-08T08:59:36;24.20;;;0.70;;
3817;SDS011;1924;48.078;11.516;2023-03-08T09:02:04;24.20;;;0.80;;
3817;SDS011;1924;48.078;11.516;2023-03-08T09:04:31;24.10;;;0.70;;
3817;SDS011;1924;48.078;11.516;2023-03-08T09:06:59;24.20;;;0.80;;
3817;SDS011;1924;48.078;11.516;2023-03-08T09:09:28;24.20;;;0.70;;
3817;SDS011;1924;48.078;11.516;2023-03-08T09:11:55;24.30;;;0.80;;
3817;SDS011;1924;48.078;11.516;2023-03-08T09:14:21;24.40;;;0.80;;
3817;SDS011;1924;48.078;11.516;2023-03-08T09:16:49;24.40;;;0.70;;
3817;SDS011;1924;48.078;11.516;2023-03-08T09:19:18;24.30;;;0.70;;
3817;SDS011;1924;48.078;11.516;2023-03-08T09:21:45;24.50;;;0.70;;
3817;SDS011;1924;48.078;11.516;2023-03-08T09:24:12;24.40;;;0.80;;
3817;SDS011;1924;48.078;11.516;2023-03-08T09:26:39;24.60;;;0.80;;
3817;SDS011;1924;48.078;11.516;2023-03-08T09:29:08;24.40;;;0.70;;
3817;SDS011;1924;48.078;11.516;2023-03-08T09:31:36;24.50;;;0.80;;
3817;SDS011;1924;48.078;11.516;2023-03-08T09:34:03;24.40;;;0.77;;
3817;SDS011;1924;48.078;11.516;2023-03-08T09:36:34;24.60;;;0.77;;
3817;SDS011;1924;48.078;11.516;2023-03-08T09:39:01;24.60;;;0.80;;
3817;SDS011;1924;48.078;11.516;2023-03-08T09:41:34;24.87;;;0.80;;
3817;SDS011;1924;48.078;11.516;2023-03-08T09:44:14;24.50;;;0.70;;
3817;SDS011;1924;48.078;11.516;2023-03-08T09:46:58;24.80;;;0.80;;
3817;SDS011;1924;48.078;11.516;2023-03-08T09:49:32;24.90;;;0.80;;
3817;SDS011;1924;48.078;11.516;2023-03-08T09:52:03;25.00;;;0.80;;
3817;SDS011;1924;48.078;11.516;2023-03-08T09:54:36;24.90;;;0.80;;
3817;SDS011;1924;48.078;11.516;2023-03-08T09:57:04;25.07;;;0.80;;
3817;SDS011;1924;48.078;11.516;2023-03-08T09:59:37;24.70;;;0.80;;
3817;SDS011;1924;48.078;11.516;2023-03-08T10:02:13;25.20;;;0.80;;
3817;SDS011;1924;48.078;11.516;2023-03-08T10:04:50;25.10;;;0.80;;
3817;SDS011;1924;48.078;11.516;2023-03-08T10:07:30;25.10;;;0.80;;
3817;SDS011;1924;48.078;11.516;2023-03-08T10:10:09;25.30;;;0.80;;
3817;SDS011;1924;48.078;11.516;2023-03-08T10:12:45;25.50;;;0.80;;
3817;SDS011;1924;48.078;11.516;2023-03-08T10:15:21;25.50;;;0.80;;
3817;SDS011;1924;48.078;11.516;2023-03-08T10:17:54;25.40;;;0.80;;
3817;SDS011;1924;48.078;11.516;2023-03-08T10:20:25;25.43;;;0.80;;
3817;SDS011;1924;48.078;11.516;2023-03-08T10:22:56;25.60;;;0.80;;
3817;SDS011;1924;48.078;11.516;2023-03-08T10:25:26;25.60;;;0.80;;
3817;SDS011;1924;48.078;11.516;2023-03-08T10:27:58;25.77;;;0.80;;
3817;SDS011;1924;48.078;11.516;2023-03-08T10:30:27;25.80;;;0.80;;
3817;SDS011;1924;48.078;11.516;2023-03-08T10:33:00;25.83;;;0.80;;
3817;SDS011;1924;48.078;11.516;2023-03-08T10:35:32;25.63;;;0.80;;
3817;SDS011;1924;48.078;11.516;2023-03-08T10:38:04;25.70;;;0.80;;
3817;SDS011;1924;48.078;11.516;2023-03-08T10:40:39;25.70;;;0.80;;
3817;SDS011;1924;48.078;11.516;2023-03-08T10:43:06;25.70;;;0.80;;
3817;SDS011;1924;48.078;11.516;2023-03-08T10:45:40;25.70;;;0.80;;
3817;SDS011;1924;48.078;11.516;2023-03-08T10:48:16;25.40;;;0.80;;
3817;SDS011;1924;48.078;11.516;2023-03-08T10:50:56;25.50;;;0.80;;
3817;SDS011;1924;48.078;11.516;2023-03-08T10:53:25;25.40;;;0.80;;
3817;SDS011;1924;48.078;11.516;2023-03-08T10:55:54;25.60;;;0.80;;
3817;SDS011;1924;48.078;11.516;2023-03-08T10:58:28;25.60;;;0.80;;
3817;SDS011;1924;48.078;11.516;2023-03-08T11:00:59;25.60;;;0.80;;
3817;SDS011;1924;48.078;11.516;2023-03-08T11:03:27;25.60;;;0.80;;
3817;SDS011;1924;48.078;11.516;2023-03-08T11:05:55;25.60;;;0.80;;
3817;SDS011;1924;48.078;11.516;2023-03-08T11:08:26;25.60;;;0.80;;
3817;SDS011;1924;48.078;11.516;2023-03-08T11:11:01;25.50;;;0.80;;
3817;SDS011;1924;48.078;11.516;2023-03-08T11:13:30;25.80;;;0.77;;
3817;SDS011;1924;48.078;11.516;2023-03-08T11:16:02;25.90;;;0.80;;
3817;SDS011;1924;48.078;11.516;2023-03-08T11:18:41;25.90;;;0.80;;
3817;SDS011;1924;48.078;11.516;2023-03-08T11:21:17;25.80;;;0.80;;
3817;SDS011;1924;48.078;11.516;2023-03-08T11:23:51;25.80;;;0.80;;
3817;SDS011;1924;48.078;11.516;2023-03-08T11:26:27;25.80;;;0.80;;
3817;SDS011;1924;48.078;11.516;2023-03-08T11:29:04;25.70;;;0.80;;
3817;SDS011;1924;48.078;11.516;2023-03-08T11:31:41;25.60;;;0.80;;
3817;SDS011;1924;48.078;11.516;2023-03-08T11:37:14;25.37;;;0.80;;
3817;SDS011;1924;48.078;11.516;2023-03-08T11:39:50;25.60;;;0.80;;
3817;SDS011;1924;48.078;11.516;2023-03-08T11:42:23;25.60;;;0.80;;
3817;SDS011;1924;48.078;11.516;2023-03-08T11:44:58;25.60;;;0.80;;
3817;SDS011;1924;48.078;11.516;2023-03-08T11:47:42;25.40;;;0.80;;
3817;SDS011;1924;48.078;11.516;2023-03-08T11:50:23;25.70;;;0.80;;
3817;SDS011;1924;48.078;11.516;2023-03-08T11:53:00;25.60;;;0.80;;
3817;SDS011;1924;48.078;11.516;2023-03-08T11:55:48;25.50;;;0.80;;
3817;SDS011;1924;48.078;11.516;2023-03-08T11:58:25;25.70;;;0.80;;
3817;SDS011;1924;48.078;11.516;2023-03-08T12:00:58;25.70;;;0.80;;
3817;SDS011;1924;48.078;11.516;2023-03-08T12:03:28;25.60;;;0.80;;
3817;SDS011;1924;48.078;11.516;2023-03-08T12:06:00;25.70;;;0.80;;
3817;SDS011;1924;48.078;11.516;2023-03-08T12:08:31;25.60;;;0.80;;
3817;SDS011;1924;48.078;11.516;2023-03-08T12:11:05;25.80;;;0.80;;
3817;SDS011;1924;48.078;11.516;2023-03-08T12:13:37;25.60;;;0.80;;
3817;SDS011;1924;48.078;11.516;2023-03-08T12:16:08;25.60;;;0.80;;
3817;SDS011;1924;48.078;11.516;2023-03-08T12:18:41;25.80;;;0.80;;
3817;SDS011;1924;48.078;11.516;2023-03-08T12:21:13;25.70;;;0.80;;
3817;SDS011;1924;48.078;11.516;2023-03-08T12:23:50;25.90;;;0.80;;
3817;SDS011;1924;48.078;11.516;2023-03-08T12:26:30;25.80;;;0.80;;
3817;SDS011;1924;48.078;11.516;2023-03-08T12:29:04;26.00;;;0.80;;
3817;SDS011;1924;48.078;11.516;2023-03-08T12:31:39;26.10;;;0.80;;
3817;SDS011;1924;48.078;11.516;2023-03-08T12:34:12;26.20;;;0.80;;
3817;SDS011;1924;48.078;11.516;2023-03-08T12:36:48;26.10;;;0.80;;
3817;SDS011;1924;48.078;11.516;2023-03-08T12:39:26;26.00;;;0.80;;
3817;SDS011;1924;48.078;11.516;2023-03-08T12:42:00;26.10;;;0.80;;
3817;SDS011;1924;48.078;11.516;2023-03-08T12:44:38;26.10;;;0.80;;
3817;SDS011;1924;48.078;11.516;2023-03-08T12:47:17;26.20;;;0.80;;
3817;SDS011;1924;48.078;11.516;2023-03-08T12:49:48;26.40;;;0.80;;
3817;SDS011;1924;48.078;11.516;2023-03-08T12:52:24;26.40;;;0.80;;
3817;SDS011;1924;48.078;11.516;2023-03-08T12:54:56;26.40;;;0.80;;
3817;SDS011;1924;48.078;11.516;2023-03-08T12:57:31;26.30;;;0.80;;
3817;SDS011;1924;48.078;11.516;2023-03-08T13:00:03;26.30;;;0.80;;
3817;SDS011;1924;48.078;11.516;2023-03-08T13:02:34;26.50;;;0.80;;
3817;SDS011;1924;48.078;11.516;2023-03-08T13:10:52;26.50;;;0.80;;
3817;SDS011;1924;48.078;11.516;2023-03-08T13:13:27;26.47;;;0.80;;
3817;SDS011;1924;48.078;11.516;2023-03-08T13:16:17;26.57;;;0.80;;
3817;SDS011;1924;48.078;11.516;2023-03-08T13:19:01;26.70;;;0.80;;
3817;SDS011;1924;48.078;11.516;2023-03-08T13:21:46;26.70;;;0.80;;
3817;SDS011;1924;48.078;11.516;2023-03-08T13:24:15;26.60;;;0.80;;
3817;SDS011;1924;48.078;11.516;2023-03-08T13:29:42;26.70;;;0.80;;
3817;SDS011;1924;48.078;11.516;2023-03-08T13:32:10;26.90;;;0.80;;
3817;SDS011;1924;48.078;11.516;2023-03-08T13:34:41;26.80;;;0.80;;
3817;SDS011;1924;48.078;11.516;2023-03-08T13:37:20;27.10;;;0.80;;
3817;SDS011;1924;48.078;11.516;2023-03-08T13:39:50;27.10;;;0.80;;
3817;SDS011;1924;48.078;11.516;2023-03-08T13:42:18;27.00;;;0.80;;
3817;SDS011;1924;48.078;11.516;2023-03-08T13:44:50;27.10;;;0.80;;
3817;SDS011;1924;48.078;11.516;2023-03-08T13:47:21;27.10;;;0.80;;
3817;SDS011;1924;48.078;11.516;2023-03-08T13:49:52;27.30;;;0.80;;
3817;SDS011;1924;48.078;11.516;2023-03-08T13:52:21;27.30;;;0.80;;
3817;SDS011;1924;48.078;11.516;2023-03-08T13:54:50;27.30;;;0.80;;
3817;SDS011;1924;48.078;11.516;2023-03-08T13:57:22;27.17;;;0.80;;
3817;SDS011;1924;48.078;11.516;2023-03-08T13:59:53;27.30;;;0.80;;
3817;SDS011;1924;48.078;11.516;2023-03-08T14:02:22;27.30;;;0.80;;
3817;SDS011;1924;48.078;11.516;2023-03-08T14:04:51;27.30;;;0.80;;
3817;SDS011;1924;48.078;11.516;2023-03-08T14:07:21;27.30;;;0.80;;
3817;SDS011;1924;48.078;11.516;2023-03-08T14:09:52;27.30;;;0.80;;
3817;SDS011;1924;48.078;11.516;2023-03-08T14:12:20;27.17;;;0.80;;
3817;SDS011;1924;48.078;11.516;2023-03-08T14:14:49;27.20;;;0.80;;
3817;SDS011;1924;48.078;11.516;2023-03-08T14:17:21;26.90;;;0.80;;
3817;SDS011;1924;48.078;11.516;2023-03-08T14:19:51;27.10;;;0.80;;
3817;SDS011;1924;48.078;11.516;2023-03-08T14:22:20;27.20;;;0.80;;
3817;SDS011;1924;48.078;11.516;2023-03-08T14:24:49;27.13;;;0.80;;
3817;SDS011;1924;48.078;11.516;2023-03-08T14:27:30;27.10;;;0.80;;
3817;SDS011;1924;48.078;11.516;2023-03-08T14:30:01;27.20;;;0.80;;
3817;SDS011;1924;48.078;11.516;2023-03-08T14:32:36;27.10;;;0.80;;
3817;SDS011;1924;48.078;11.516;2023-03-08T14:35:05;27.13;;;0.80;;
3817;SDS011;1924;48.078;11.516;2023-03-08T14:37:43;27.00;;;0.80;;
3817;SDS011;1924;48.078;11.516;2023-03-08T14:40:17;27.10;;;0.80;;
3817;SDS011;1924;48.078;11.516;2023-03-08T14:42:48;27.00;;;0.80;;
3817;SDS011;1924;48.078;11.516;2023-03-08T14:45:20;27.10;;;0.80;;
3817;SDS011;1924;48.078;11.516;2023-03-08T14:47:53;26.87;;;0.80;;
3817;SDS011;1924;48.078;11.516;2023-03-08T14:50:23;27.10;;;0.70;;
3817;SDS011;1924;48.078;11.516;2023-03-08T14:52:52;27.20;;;0.80;;
3817;SDS011;1924;48.078;11.516;2023-03-08T14:55:22;27.10;;;0.80;;
3817;SDS011;1924;48.078;11.516;2023-03-08T14:57:53;27.20;;;0.77;;
3817;SDS011;1924;48.078;11.516;2023-03-08T15:00:22;27.20;;;0.80;;
3817;SDS011;1924;48.078;11.516;2023-03-08T15:02:52;26.97;;;0.80;;
3817;SDS011;1924;48.078;11.516;2023-03-08T15:05:20;27.20;;;0.80;;
3817;SDS011;1924;48.078;11.516;2023-03-08T15:07:48;27.30;;;0.80;;
3817;SDS011;1924;48.078;11.516;2023-03-08T15:10:18;27.30;;;0.80;;
3817;SDS011;1924;48.078;11.516;2023-03-08T15:12:49;27.20;;;0.80;;
3817;SDS011;1924;48.078;11.516;2023-03-08T15:15:17;27.10;;;0.80;;
3817;SDS011;1924;48.078;11.516;2023-03-08T15:17:46;27.20;;;0.80;;
3817;SDS011;1924;48.078;11.516;2023-03-08T15:20:15;27.17;;;0.80;;
3817;SDS011;1924;48.078;11.516;2023-03-08T15:22:44;27.27;;;0.73;;
3817;SDS011;1924;48.078;11.516;2023-03-08T15:25:13;27.20;;;0.80;;
3817;SDS011;1924;48.078;11.516;2023-03-08T15:27:45;27.20;;;0.80;;
3817;SDS011;1924;48.078;11.516;2023-03-08T15:30:13;27.27;;;0.80;;
3817;SDS011;1924;48.078;11.516;2023-03-08T15:32:41;27.20;;;0.80;;
3817;SDS011;1924;48.078;11.516;2023-03-08T15:35:08;27.20;;;0.80;;
3817;SDS011;1924;48.078;11.516;2023-03-08T15:37:37;27.20;;;0.70;;
3817;SDS011;1924;48.078;11.516;2023-03-08T15:40:04;27.20;;;0.80;;
3817;SDS011;1924;48.078;11.516;2023-03-08T15:42:32;27.00;;;0.70;;
3817;SDS011;1924;48.078;11.516;2023-03-08T15:45:00;27.30;;;0.80;;
3817;SDS011;1924;48.078;11.516;2023-03-08T15:47:29;26.90;;;0.80;;
3817;SDS011;1924;48.078;11.516;2023-03-08T15:49:55;27.20;;;0.80;;
3817;SDS011;1924;48.078;11.516;2023-03-08T15:52:22;27.27;;;0.80;;
3817;SDS011;1924;48.078;11.516;2023-03-08T15:54:51;27.17;;;0.77;;
3817;SDS011;1924;48.078;11.516;2023-03-08T15:57:18;27.10;;;0.80;;
3817;SDS011;1924;48.078;11.516;2023-03-08T15:59:45;26.90;;;0.73;;
3817;SDS011;1924;48.078;11.516;2023-03-08T16:02:12;27.10;;;0.80;;
3817;SDS011;1924;48.078;11.516;2023-03-08T16:04:41;27.00;;;0.70;;
3817;SDS011;1924;48.078;11.516;2023-03-08T16:07:12;27.20;;;0.80;;
3817;SDS011;1924;48.078;11.516;2023-03-08T16:09:40;27.10;;;0.77;;
3817;SDS011;1924;48.078;11.516;2023-03-08T16:12:08;26.97;;;0.80;;
3817;SDS011;1924;48.078;11.516;2023-03-08T16:14:35;27.10;;;0.80;;
3817;SDS011;1924;48.078;11.516;2023-03-08T16:17:05;27.10;;;0.80;;
3817;SDS011;1924;48.078;11.516;2023-03-08T16:19:33;27.00;;;0.77;;
3817;SDS011;1924;48.078;11.516;2023-03-08T16:22:01;27.00;;;0.80;;
3817;SDS011;1924;48.078;11.516;2023-03-08T16:24:28;27.10;;;0.80;;
3817;SDS011;1924;48.078;11.516;2023-03-08T16:26:56;26.77;;;0.77;;
3817;SDS011;1924;48.078;11.516;2023-03-08T16:29:30;26.90;;;0.80;;
3817;SDS011;1924;48.078;11.516;2023-03-08T16:31:58;26.87;;;0.80;;
3817;SDS011;1924;48.078;11.516;2023-03-08T16:34:25;27.00;;;0.70;;
3817;SDS011;1924;48.078;11.516;2023-03-08T16:36:52;26.87;;;0.70;;
3817;SDS011;1924;48.078;11.516;2023-03-08T16:39:19;27.10;;;0.73;;
3817;SDS011;1924;48.078;11.516;2023-03-08T16:41:46;26.90;;;0.80;;
3817;SDS011;1924;48.078;11.516;2023-03-08T16:44:17;26.90;;;0.80;;
3817;SDS011;1924;48.078;11.516;2023-03-08T16:46:46;26.90;;;0.80;;
3817;SDS011;1924;48.078;11.516;2023-03-08T16:49:13;27.03;;;0.70;;
3817;SDS011;1924;48.078;11.516;2023-03-08T16:51:41;26.90;;;0.70;;
3817;SDS011;1924;48.078;11.516;2023-03-08T16:54:08;26.90;;;0.80;;
3817;SDS011;1924;48.078;11.516;2023-03-08T16:56:35;26.90;;;0.80;;
3817;SDS011;1924;48.078;11.516;2023-03-08T16:59:03;26.90;;;0.80;;
3817;SDS011;1924;48.078;11.516;2023-03-08T17:01:29;26.80;;;0.80;;
3817;SDS011;1924;48.078;11.516;2023-03-08T17:03:58;27.00;;;0.80;;
3817;SDS011;1924;48.078;11.516;2023-03-08T17:06:26;26.90;;;0.80;;